Time;durP1;ratioP1;P1;durP2;ratioP2;P2;SDS_P1;SDS_P2;PMS_P1;PMS_P2;Temp;Humidity;BMP_temperature;BMP_pressure;BME280_temperature;BME280_humidity;BME280_pressure;Samples;Min_cycle;Max_cycle;Signal;HPM_P1;HPM_P2
2023/09/26 00:01:34;;;;;;;1999.90;999.90;;;15.20;99.90;;;;;;5012999;28;20891;-67
2023/09/26 00:04:00;;;;;;;1999.90;999.90;;;15.20;99.90;;;;;;5013159;28;20198;-68
2023/09/26 00:06:27;;;;;;;1999.90;999.90;;;15.20;99.90;;;;;;5013090;28;20574;-68
2023/09/26 00:08:52;;;;;;;1999.90;999.90;;;15.20;99.90;;;;;;5013083;28;20420;-69
2023/09/26 00:11:19;;;;;;;1999.90;999.90;;;15.10;99.90;;;;;;5012923;28;20414;-67
2023/09/26 00:13:45;;;;;;;1999.90;999.90;;;15.00;99.90;;;;;;5012207;28;20212;-67
2023/09/26 00:16:11;;;;;;;1999.90;999.90;;;15.00;99.90;;;;;;5012284;28;20786;-67
2023/09/26 00:18:40;;;;;;;1999.90;999.90;;;15.00;99.90;;;;;;5012466;28;20397;-67
2023/09/26 00:21:10;;;;;;;1999.90;999.90;;;15.00;99.90;;;;;;5012340;28;20541;-67
2023/09/26 00:23:36;;;;;;;1999.90;999.90;;;14.90;99.90;;;;;;5012351;28;20835;-67
2023/09/26 00:26:03;;;;;;;1999.90;999.90;;;14.90;99.90;;;;;;5012183;28;20429;-67
2023/09/26 00:28:29;;;;;;;1999.90;999.90;;;14.90;99.90;;;;;;5012396;28;20420;-67
2023/09/26 00:30:59;;;;;;;1999.90;999.90;;;14.90;99.90;;;;;;5012469;28;20416;-67
2023/09/26 00:33:24;;;;;;;1999.90;999.90;;;14.90;99.90;;;;;;5012134;28;20207;-67
2023/09/26 00:35:50;;;;;;;1999.90;999.90;;;14.80;99.90;;;;;;5012028;28;20413;-67
2023/09/26 00:38:16;;;;;;;1999.90;999.90;;;14.70;99.90;;;;;;5011558;28;20164;-67
2023/09/26 00:40:42;;;;;;;1999.90;999.90;;;14.70;99.90;;;;;;5012118;28;20459;-67
2023/09/26 00:43:08;;;;;;;1999.90;999.90;;;14.60;99.90;;;;;;5012247;28;20658;-67
2023/09/26 00:45:35;;;;;;;1999.90;999.90;;;14.60;99.90;;;;;;5000070;28;20475;-67
2023/09/26 00:48:03;;;;;;;1999.90;999.90;;;14.60;99.90;;;;;;5003907;28;20408;-67
2023/09/26 00:50:29;;;;;;;1999.90;999.90;;;14.60;99.90;;;;;;5003713;28;20421;-67
2023/09/26 00:52:55;;;;;;;1999.90;999.90;;;14.60;99.90;;;;;;4997778;28;20459;-67
2023/09/26 00:55:22;;;;;;;1999.90;999.90;;;14.50;99.90;;;;;;5003456;28;20224;-67
2023/09/26 00:57:48;;;;;;;1999.90;999.90;;;14.50;99.90;;;;;;5012191;28;20410;-67
2023/09/26 01:00:16;;;;;;;1999.90;999.90;;;14.40;99.90;;;;;;5012138;28;20422;-67
2023/09/26 01:02:42;;;;;;;1999.90;999.90;;;14.30;99.90;;;;;;5011880;28;20166;-67
2023/09/26 01:05:09;;;;;;;1999.90;999.90;;;14.20;99.90;;;;;;5011698;28;20430;-67
2023/09/26 01:07:35;;;;;;;1999.90;999.90;;;14.20;99.90;;;;;;5011933;28;20417;-67
2023/09/26 01:10:07;;;;;;;1999.90;999.90;;;14.20;99.90;;;;;;5012138;28;20401;-67
2023/09/26 01:12:32;;;;;;;1999.90;999.90;;;14.10;99.90;;;;;;5011927;28;20438;-67
2023/09/26 01:14:58;;;;;;;1999.90;999.90;;;14.10;99.90;;;;;;5011327;28;20504;-67
2023/09/26 01:17:23;;;;;;;1999.90;999.90;;;14.10;99.90;;;;;;5011891;28;20171;-67
2023/09/26 01:19:49;;;;;;;1999.90;999.90;;;14.10;99.90;;;;;;5011890;28;20178;-67
2023/09/26 01:22:17;;;;;;;1999.90;999.90;;;14.10;99.90;;;;;;5011691;28;20171;-67
2023/09/26 01:24:43;;;;;;;1999.90;999.90;;;14.10;99.90;;;;;;5011513;28;20669;-67
2023/09/26 01:27:09;;;;;;;1999.90;999.90;;;14.00;99.90;;;;;;5011956;28;20450;-67
2023/09/26 01:29:35;;;;;;;1999.90;999.90;;;14.10;99.90;;;;;;5011789;28;20423;-67
2023/09/26 01:32:01;;;;;;;1999.90;999.90;;;14.10;99.90;;;;;;5011654;28;20780;-67
2023/09/26 01:34:27;;;;;;;1999.90;999.90;;;14.10;99.90;;;;;;5011527;28;20204;-67
2023/09/26 01:36:52;;;;;;;1999.90;999.90;;;14.00;99.90;;;;;;5011386;28;20173;-67
2023/09/26 01:39:18;;;;;;;1999.90;999.90;;;14.00;99.90;;;;;;5011669;28;20883;-67
2023/09/26 01:41:43;;;;;;;1999.90;999.90;;;14.00;99.90;;;;;;5011652;28;20171;-67
2023/09/26 01:44:09;;;;;;;1999.90;999.90;;;14.00;99.90;;;;;;5011549;28;20194;-67
2023/09/26 01:46:35;;;;;;;1999.90;999.90;;;14.00;99.90;;;;;;5011439;28;20178;-67
2023/09/26 01:49:00;;;;;;;1999.90;999.90;;;14.00;99.90;;;;;;5013165;28;20213;-67
2023/09/26 01:51:26;;;;;;;1999.90;999.90;;;13.90;99.90;;;;;;5015116;28;20175;-67
2023/09/26 01:53:51;;;;;;;1999.90;999.90;;;14.00;99.90;;;;;;5014880;28;20209;-67
2023/09/26 01:56:17;;;;;;;1999.90;999.90;;;13.80;99.90;;;;;;5015011;28;20276;-67
2023/09/26 01:58:43;;;;;;;1999.90;999.90;;;13.80;99.90;;;;;;5015096;28;20165;-67
2023/09/26 02:01:08;;;;;;;1999.90;999.90;;;13.80;99.90;;;;;;5015028;28;20629;-67
2023/09/26 02:03:34;;;;;;;1999.90;999.90;;;13.70;99.90;;;;;;5014838;28;20664;-67
2023/09/26 02:06:00;;;;;;;1999.90;999.90;;;13.70;99.90;;;;;;5014631;28;20200;-67
2023/09/26 02:08:26;;;;;;;1999.90;999.90;;;13.60;99.90;;;;;;5014833;28;20403;-67
2023/09/26 02:10:52;;;;;;;1999.90;999.90;;;13.60;99.90;;;;;;5014810;28;20414;-67
2023/09/26 02:13:17;;;;;;;1999.90;999.90;;;13.50;99.90;;;;;;5014531;28;20194;-67
2023/09/26 02:15:43;;;;;;;1999.90;999.90;;;13.50;99.90;;;;;;5014519;28;20177;-67
2023/09/26 02:18:08;;;;;;;1999.90;999.90;;;13.50;99.90;;;;;;5014653;28;20538;-67
2023/09/26 02:20:34;;;;;;;1999.90;999.90;;;13.40;99.90;;;;;;5014539;28;20173;-67
2023/09/26 02:22:59;;;;;;;1999.90;999.90;;;13.40;99.90;;;;;;5014518;28;20207;-67
2023/09/26 02:25:27;;;;;;;1999.90;999.90;;;13.30;99.90;;;;;;5014313;28;20219;-67
2023/09/26 02:27:53;;;;;;;1999.90;999.90;;;13.30;99.90;;;;;;5014470;28;20179;-67
2023/09/26 02:30:25;;;;;;;1999.90;999.90;;;13.20;99.90;;;;;;5014395;28;20419;-67
2023/09/26 02:32:50;;;;;;;1999.90;999.90;;;13.20;99.90;;;;;;5014289;28;20495;-67
2023/09/26 02:35:18;;;;;;;1999.90;999.90;;;13.20;99.90;;;;;;5013938;28;20503;-67
2023/09/26 02:37:44;;;;;;;1999.90;999.90;;;13.20;99.90;;;;;;5014515;28;20179;-67
2023/09/26 02:40:10;;;;;;;1999.90;999.90;;;13.00;99.90;;;;;;5014180;28;20843;-67
2023/09/26 02:42:37;;;;;;;1999.90;999.90;;;12.90;99.90;;;;;;5014142;28;20236;-67
2023/09/26 02:45:04;;;;;;;1999.90;999.90;;;12.90;99.90;;;;;;5013854;28;20427;-67
2023/09/26 02:47:29;;;;;;;1999.90;999.90;;;12.80;99.90;;;;;;5014189;28;20439;-67
2023/09/26 02:49:55;;;;;;;1999.90;999.90;;;12.80;99.90;;;;;;5013969;28;20871;-67
2023/09/26 02:52:22;;;;;;;1999.90;999.90;;;12.80;99.90;;;;;;5013976;28;20252;-67
2023/09/26 02:54:48;;;;;;;1999.90;999.90;;;12.70;99.90;;;;;;5013751;28;20226;-67
2023/09/26 02:57:15;;;;;;;1999.90;999.90;;;12.70;99.90;;;;;;5014096;28;20948;-67
2023/09/26 02:59:40;;;;;;;1999.90;999.90;;;12.70;99.90;;;;;;5013498;28;20265;-67
2023/09/26 03:02:06;;;;;;;1999.90;999.90;;;12.70;99.90;;;;;;5013471;28;20485;-67
2023/09/26 03:04:32;;;;;;;1999.90;999.90;;;12.70;99.90;;;;;;5013681;28;20190;-67
2023/09/26 03:06:57;;;;;;;1999.90;999.90;;;12.70;99.90;;;;;;5013506;28;20266;-67
2023/09/26 03:09:23;;;;;;;1999.90;999.90;;;12.70;99.90;;;;;;5013786;28;20508;-67
2023/09/26 03:11:48;;;;;;;1999.90;999.90;;;12.70;99.90;;;;;;5013556;28;20210;-67
2023/09/26 03:14:15;;;;;;;1999.90;999.90;;;12.70;99.90;;;;;;5013237;28;20687;-67
2023/09/26 03:16:40;;;;;;;1999.90;999.90;;;12.60;99.90;;;;;;5013440;28;20174;-67
2023/09/26 03:19:08;;;;;;;1999.90;999.90;;;12.60;99.90;;;;;;5013358;28;20853;-67
2023/09/26 03:21:33;;;;;;;1999.90;999.90;;;12.50;99.90;;;;;;5013492;28;20206;-67
2023/09/26 03:23:59;;;;;;;1999.90;999.90;;;12.50;99.90;;;;;;5013237;28;20466;-67
2023/09/26 03:26:24;;;;;;;1999.90;999.90;;;12.50;99.90;;;;;;5013345;28;20200;-67
2023/09/26 03:28:50;;;;;;;1999.90;999.90;;;12.50;99.90;;;;;;5013371;28;20183;-67
2023/09/26 03:31:15;;;;;;;1999.90;999.90;;;12.50;99.90;;;;;;5013237;28;20175;-67
2023/09/26 03:33:41;;;;;;;1999.90;999.90;;;12.60;99.90;;;;;;5012923;28;20203;-67
2023/09/26 03:36:07;;;;;;;1999.90;999.90;;;12.50;99.90;;;;;;5012980;28;20519;-67
2023/09/26 03:38:33;;;;;;;1999.90;999.90;;;12.50;99.90;;;;;;5013264;28;20175;-67
2023/09/26 03:41:03;;;;;;;1999.90;999.90;;;12.50;99.90;;;;;;5013038;28;20448;-67
2023/09/26 03:43:30;;;;;;;1999.90;999.90;;;12.50;99.90;;;;;;5012991;28;20188;-67
2023/09/26 03:46:04;;;;;;;1999.90;999.90;;;12.50;99.90;;;;;;5012843;28;20447;-67
2023/09/26 03:48:30;;;;;;;1999.90;999.90;;;12.60;99.90;;;;;;5013113;28;20414;-66
2023/09/26 03:50:56;;;;;;;1999.90;999.90;;;12.50;99.90;;;;;;5012980;28;20404;-66
2023/09/26 03:53:21;;;;;;;1999.90;999.90;;;12.20;99.90;;;;;;5012749;28;20864;-67
2023/09/26 03:55:56;;;;;;;1999.90;999.90;;;12.30;99.90;;;;;;5012739;28;20807;-66
2023/09/26 03:58:22;;;;;;;1999.90;999.90;;;12.30;99.90;;;;;;5012729;28;20218;-65
2023/09/26 04:00:48;;;;;;;1999.90;999.90;;;12.30;99.90;;;;;;5013056;28;20405;-66
2023/09/26 04:03:13;;;;;;;1999.90;999.90;;;12.30;99.90;;;;;;5012601;28;20170;-66
2023/09/26 04:05:46;;;;;;;1999.90;999.90;;;12.20;99.90;;;;;;5012598;28;20425;-65
2023/09/26 04:08:14;;;;;;;1999.90;999.90;;;12.20;99.90;;;;;;5012614;28;20199;-65
2023/09/26 04:10:40;;;;;;;1999.90;999.90;;;12.20;99.90;;;;;;5012622;28;20416;-67
2023/09/26 04:13:05;;;;;;;1999.90;999.90;;;12.00;99.90;;;;;;5012262;28;20492;-66
2023/09/26 04:15:31;;;;;;;1999.90;999.90;;;12.10;99.90;;;;;;5012376;28;20182;-67
2023/09/26 04:17:57;;;;;;;1999.90;999.90;;;12.20;99.90;;;;;;5012477;28;20168;-67
2023/09/26 04:20:23;;;;;;;1999.90;999.90;;;12.10;99.90;;;;;;5012404;28;20800;-67
2023/09/26 04:22:49;;;;;;;1999.90;999.90;;;12.10;99.90;;;;;;5012607;28;20227;-67
2023/09/26 04:25:14;;;;;;;1999.90;999.90;;;12.00;99.90;;;;;;5008462;28;20465;-67
2023/09/26 04:27:40;;;;;;;1999.90;999.90;;;12.10;99.90;;;;;;4998433;28;20523;-67
2023/09/26 04:30:08;;;;;;;1999.90;999.90;;;12.00;99.90;;;;;;5004084;28;20173;-67
2023/09/26 04:32:34;;;;;;;1999.90;999.90;;;12.00;99.90;;;;;;5012398;28;20253;-67
2023/09/26 04:34:59;;;;;;;1999.90;999.90;;;11.90;99.90;;;;;;5011908;28;20900;-67
2023/09/26 04:37:25;;;;;;;1999.90;999.90;;;11.90;99.90;;;;;;5012202;28;20165;-67
2023/09/26 04:39:51;;;;;;;1999.90;999.90;;;11.80;99.90;;;;;;5012199;28;20249;-67
2023/09/26 04:42:16;;;;;;;1999.90;999.90;;;11.80;99.90;;;;;;5012109;28;20176;-67
2023/09/26 04:44:42;;;;;;;1999.90;999.90;;;11.80;99.90;;;;;;5012038;28;20190;-67
2023/09/26 04:47:07;;;;;;;1999.90;999.90;;;11.80;99.90;;;;;;5011931;28;20230;-67
2023/09/26 04:49:36;;;;;;;1999.90;999.90;;;11.80;99.90;;;;;;5012114;28;20247;-67
2023/09/26 04:52:03;;;;;;;1999.90;999.90;;;11.70;99.90;;;;;;5012149;28;20237;-67
2023/09/26 04:54:29;;;;;;;1999.90;999.90;;;11.70;99.90;;;;;;5013853;28;20460;-69
2023/09/26 04:56:54;;;;;;;1999.90;999.90;;;11.60;99.90;;;;;;5014024;28;20410;-68
2023/09/26 04:59:20;;;;;;;1999.90;999.90;;;11.60;99.90;;;;;;5014531;28;20176;-68
2023/09/26 05:01:46;;;;;;;1999.90;999.90;;;11.60;99.90;;;;;;5014326;28;20163;-69
2023/09/26 05:04:12;;;;;;;1999.90;999.90;;;11.60;99.90;;;;;;5014698;28;20195;-68
2023/09/26 05:06:37;;;;;;;1999.90;999.90;;;11.40;99.90;;;;;;5014427;28;20206;-68
2023/09/26 05:09:07;;;;;;;1999.90;999.90;;;11.50;99.90;;;;;;5014606;28;20819;-68
2023/09/26 05:11:33;;;;;;;1999.90;999.90;;;11.60;99.90;;;;;;5015054;28;20416;-67
2023/09/26 05:13:59;;;;;;;1999.90;999.90;;;11.60;99.90;;;;;;5015153;28;20458;-67
2023/09/26 05:16:25;;;;;;;1999.90;999.90;;;11.60;99.90;;;;;;5014963;28;20920;-67
2023/09/26 05:18:51;;;;;;;1999.90;999.90;;;11.60;99.90;;;;;;5014886;28;20887;-68
2023/09/26 05:21:17;;;;;;;1999.90;999.90;;;11.60;99.90;;;;;;5014364;28;20436;-68
2023/09/26 05:23:42;;;;;;;1999.90;999.90;;;11.60;99.90;;;;;;5015934;28;20200;-67
2023/09/26 05:26:10;;;;;;;1999.90;999.90;;;11.60;99.90;;;;;;5018869;28;20577;-69
2023/09/26 05:28:36;;;;;;;1999.90;999.90;;;11.60;99.90;;;;;;5019404;28;20564;-68
2023/09/26 05:31:02;;;;;;;1999.90;999.90;;;11.60;99.90;;;;;;5019014;28;20413;-68
2023/09/26 05:33:28;;;;;;;1999.90;999.90;;;11.60;99.90;;;;;;5000022;28;20225;-69
2023/09/26 05:35:54;;;;;;;1999.90;999.90;;;11.60;99.90;;;;;;5007218;28;20408;-68
2023/09/26 05:38:21;;;;;;;1999.90;999.90;;;11.60;99.90;;;;;;5011804;28;20194;-68
2023/09/26 05:40:47;;;;;;;1999.90;999.90;;;11.60;99.90;;;;;;5018433;28;20396;-68
2023/09/26 05:43:13;;;;;;;1999.90;999.90;;;11.60;99.90;;;;;;5018498;28;20408;-67
2023/09/26 05:45:38;;;;;;;1999.90;999.90;;;11.50;99.90;;;;;;5018334;28;20888;-66
2023/09/26 05:48:04;;;;;;;1999.90;999.90;;;11.60;99.90;;;;;;5018003;28;20986;-69
2023/09/26 05:50:30;;;;;;;1999.90;999.90;;;11.50;99.90;;;;;;5018320;28;20668;-69
2023/09/26 05:52:56;;;;;;;1999.90;999.90;;;11.50;99.90;;;;;;5018026;28;20258;-69
2023/09/26 05:55:22;;;;;;;1999.90;999.90;;;11.60;99.90;;;;;;5017762;28;20898;-68
2023/09/26 05:57:48;;;;;;;1999.90;999.90;;;11.70;99.90;;;;;;5018293;28;20588;-69
2023/09/26 06:00:15;;;;;;;1999.90;999.90;;;11.70;99.90;;;;;;5017251;28;20173;-68
2023/09/26 06:02:41;;;;;;;1999.90;999.90;;;11.80;99.90;;;;;;5017329;28;20584;-67
2023/09/26 06:05:07;;;;;;;1999.90;999.90;;;11.80;99.90;;;;;;5018225;28;20990;-68
2023/09/26 06:07:32;;;;;;;1999.90;999.90;;;12.00;99.90;;;;;;5018735;28;20416;-67
2023/09/26 06:09:58;;;;;;;1999.90;999.90;;;12.10;99.90;;;;;;5018115;28;20419;-68
2023/09/26 06:12:24;;;;;;;1999.90;999.90;;;12.10;99.90;;;;;;5017891;28;20523;-67
2023/09/26 06:14:51;;;;;;;1999.90;999.90;;;12.20;99.90;;;;;;5017612;28;20224;-69
2023/09/26 06:17:16;;;;;;;1999.90;999.90;;;12.20;99.90;;;;;;5018172;28;20776;-69
2023/09/26 06:19:46;;;;;;;1999.90;999.90;;;12.20;99.90;;;;;;5015612;28;20400;-69
2023/09/26 06:22:12;;;;;;;1999.90;999.90;;;12.30;99.90;;;;;;5016561;28;20178;-68
2023/09/26 06:24:38;;;;;;;1999.90;999.90;;;12.40;99.90;;;;;;5014642;28;20466;-68
2023/09/26 06:27:04;;;;;;;1999.90;999.90;;;12.50;99.90;;;;;;5005488;28;20514;-68
2023/09/26 06:29:29;;;;;;;1999.90;999.90;;;12.60;99.90;;;;;;5012061;28;20184;-67
2023/09/26 06:31:55;;;;;;;1999.90;999.90;;;12.60;99.90;;;;;;5003117;28;20192;-68
2023/09/26 06:34:20;;;;;;;1999.90;999.90;;;12.60;99.90;;;;;;5004025;28;20224;-68
2023/09/26 06:36:49;;;;;;;1999.90;999.90;;;12.70;99.90;;;;;;4997252;28;20182;-67
2023/09/26 06:39:15;;;;;;;1999.90;999.90;;;12.70;99.90;;;;;;5008330;28;20219;-67
2023/09/26 06:41:40;;;;;;;1999.90;999.90;;;12.80;99.90;;;;;;5008741;28;20517;-68
2023/09/26 06:44:06;;;;;;;1999.90;999.90;;;12.80;99.90;;;;;;5006432;28;20212;-68
2023/09/26 06:46:32;;;;;;;1999.90;999.90;;;12.90;99.90;;;;;;5010983;28;20550;-68
2023/09/26 06:48:57;;;;;;;1999.90;999.90;;;12.90;99.90;;;;;;5016627;28;20184;-68
2023/09/26 06:51:24;;;;;;;1999.90;999.90;;;13.00;99.90;;;;;;5015134;28;20791;-67
2023/09/26 06:53:49;;;;;;;1999.90;999.90;;;13.00;99.90;;;;;;5013440;28;20292;-67
2023/09/26 06:56:15;;;;;;;1999.90;999.90;;;13.10;99.90;;;;;;5010635;28;20497;-67
2023/09/26 06:58:40;;;;;;;1999.90;999.90;;;13.10;99.90;;;;;;5001978;28;20170;-67
2023/09/26 07:01:17;;;;;;;1999.90;999.90;;;13.20;99.90;;;;;;5012721;28;20181;-67
2023/09/26 07:03:43;;;;;;;1999.90;999.90;;;13.20;99.90;;;;;;5013107;28;20203;-67
2023/09/26 07:06:10;;;;;;;1999.90;999.90;;;13.30;99.90;;;;;;5013157;28;20416;-67
2023/09/26 07:08:41;;;;;;;1999.90;999.90;;;13.30;99.90;;;;;;5013396;28;20174;-67
2023/09/26 07:11:08;;;;;;;1999.90;999.90;;;13.40;99.90;;;;;;5013186;28;20424;-67
2023/09/26 07:13:36;;;;;;;1999.90;999.90;;;13.40;99.90;;;;;;5013049;28;20529;-67
2023/09/26 07:16:04;;;;;;;1999.90;999.90;;;13.60;99.90;;;;;;5013071;28;20977;-67
2023/09/26 07:18:37;;;;;;;1999.90;999.90;;;13.60;99.90;;;;;;5013001;28;20411;-67
2023/09/26 07:21:06;;;;;;;1999.90;999.90;;;13.70;99.90;;;;;;5013293;28;20562;-67
2023/09/26 07:23:36;;;;;;;1999.90;999.90;;;13.80;99.90;;;;;;5012957;28;20443;-67
2023/09/26 07:26:12;;;;;;;1999.90;999.90;;;13.90;99.90;;;;;;5012800;28;20758;-67
2023/09/26 07:28:38;;;;;;;1999.90;999.90;;;14.00;99.90;;;;;;5013163;28;20420;-67
2023/09/26 07:31:04;;;;;;;1999.90;999.90;;;14.10;99.90;;;;;;5006133;28;20425;-67
2023/09/26 07:33:30;;;;;;;1999.90;999.90;;;14.20;99.90;;;;;;5006884;28;20475;-67
2023/09/26 07:35:56;;;;;;;1999.90;999.90;;;14.30;99.90;;;;;;5012831;28;20410;-71
2023/09/26 07:38:22;;;;;;;1999.90;999.90;;;14.30;99.90;;;;;;5013323;28;20409;-71
2023/09/26 07:40:47;;;;;;;1999.90;999.90;;;14.50;99.90;;;;;;5012530;28;20208;-70
2023/09/26 07:43:13;;;;;;;1999.90;999.90;;;14.70;99.90;;;;;;4991745;28;20221;-74
2023/09/26 07:45:39;;;;;;;1999.90;999.90;;;14.70;99.90;;;;;;4998221;28;20192;-73
2023/09/26 07:48:05;;;;;;;1999.90;999.90;;;14.80;99.90;;;;;;4992072;28;20196;-73
2023/09/26 07:50:31;;;;;;;1999.90;999.90;;;15.00;99.90;;;;;;4989470;28;20413;-71
2023/09/26 07:52:57;;;;;;;1999.90;999.90;;;15.10;99.90;;;;;;4991980;28;20488;-70
2023/09/26 07:55:24;;;;;;;1999.90;999.90;;;15.20;99.90;;;;;;4987357;28;20212;-72
2023/09/26 07:57:49;;;;;;;1999.90;999.90;;;15.30;99.90;;;;;;4988502;28;20221;-71
2023/09/26 08:00:15;;;;;;;1999.90;999.90;;;15.30;99.90;;;;;;4989403;28;20886;-71
2023/09/26 08:02:40;;;;;;;1999.90;999.90;;;15.50;99.90;;;;;;4988523;28;20180;-67
2023/09/26 08:05:07;;;;;;;1999.90;999.90;;;15.50;99.90;;;;;;4988662;28;20230;-67
2023/09/26 08:07:32;;;;;;;1999.90;999.90;;;15.70;99.90;;;;;;4989375;28;20873;-71
2023/09/26 08:10:00;;;;;;;1999.90;999.90;;;15.80;99.90;;;;;;4988548;28;20455;-68
2023/09/26 08:12:27;;;;;;;1999.90;999.90;;;15.90;99.90;;;;;;4988200;28;20431;-67
2023/09/26 08:14:56;;;;;;;1999.90;999.90;;;16.00;99.90;;;;;;4988835;28;20460;-67
2023/09/26 08:17:22;;;;;;;1999.90;999.90;;;16.10;99.90;;;;;;4993547;28;20457;-69
2023/09/26 08:19:48;;;;;;;1999.90;999.90;;;16.20;99.90;;;;;;5009353;28;20424;-69
2023/09/26 08:22:14;;;;;;;1999.90;999.90;;;16.30;99.90;;;;;;5010997;28;20429;-69
2023/09/26 08:24:39;;;;;;;1999.90;999.90;;;16.40;99.90;;;;;;5009442;28;20228;-68
2023/09/26 08:27:06;;;;;;;1999.90;999.90;;;16.40;99.90;;;;;;5011391;28;20195;-68
2023/09/26 08:29:31;;;;;;;1999.90;999.90;;;16.50;99.90;;;;;;5011108;28;20191;-68
2023/09/26 08:31:57;;;;;;;1999.90;999.90;;;16.60;99.90;;;;;;5002828;28;20775;-68
2023/09/26 08:34:24;;;;;;;1999.90;999.90;;;16.60;99.90;;;;;;5000269;28;20217;-67
2023/09/26 08:36:49;;;;;;;1999.90;999.90;;;16.70;99.90;;;;;;4998255;28;20811;-68
2023/09/26 08:39:15;;;;;;;1999.90;999.90;;;16.90;99.90;;;;;;5007722;28;20412;-68
2023/09/26 08:41:44;;;;;;;1999.90;999.90;;;16.90;99.90;;;;;;5007002;28;20255;-68
2023/09/26 08:44:12;;;;;;;1999.90;999.90;;;17.00;99.90;;;;;;4995869;28;20205;-68
2023/09/26 08:46:42;;;;;;;1999.90;999.90;;;17.10;99.90;;;;;;4997599;28;20450;-68
2023/09/26 08:49:09;;;;;;;1999.90;999.90;;;17.10;99.90;;;;;;4998974;28;20415;-68
2023/09/26 08:51:35;;;;;;;1999.90;999.90;;;17.20;99.90;;;;;;5007308;28;20914;-68
2023/09/26 08:54:00;;;;;;;1999.90;999.90;;;17.30;99.90;;;;;;5008031;28;20464;-68
2023/09/26 08:56:26;;;;;;;1999.90;999.90;;;17.40;99.90;;;;;;4996251;28;20708;-68
2023/09/26 08:58:55;;;;;;;1999.90;999.90;;;17.50;99.90;;;;;;5000911;28;20561;-68
2023/09/26 09:01:20;;;;;;;1999.90;999.90;;;17.60;99.90;;;;;;4993025;28;20180;-68
2023/09/26 09:03:46;;;;;;;1999.90;999.90;;;17.70;99.90;;;;;;5002809;28;20439;-67
2023/09/26 09:06:13;;;;;;;1999.90;999.90;;;17.90;99.90;;;;;;5011143;28;20191;-68
2023/09/26 09:08:39;;;;;;;1999.90;999.90;;;18.00;99.90;;;;;;5012100;28;20433;-68
2023/09/26 09:11:04;;;;;;;1999.90;999.90;;;18.10;99.90;;;;;;5003009;28;20443;-72
2023/09/26 09:13:43;;;;;;;1999.90;999.90;;;18.30;99.90;;;;;;5003270;28;20446;-68
2023/09/26 09:16:13;;;;;;;1999.90;999.90;;;18.50;99.90;;;;;;5010901;28;20457;-69
2023/09/26 09:18:51;;;;;;;1999.90;999.90;;;18.70;99.90;;;;;;5011587;28;21002;-69
2023/09/26 09:21:25;;;;;;;1999.90;999.90;;;18.80;99.90;;;;;;5011473;28;20408;-70
2023/09/26 09:23:52;;;;;;;1999.90;999.90;;;18.80;99.90;;;;;;5012929;28;20954;-72
2023/09/26 09:26:21;;;;;;;1999.90;999.90;;;19.00;99.90;;;;;;5004046;28;20473;-69
2023/09/26 09:28:48;;;;;;;1999.90;999.90;;;19.10;99.90;;;;;;4996350;28;20423;-69
2023/09/26 09:31:15;;;;;;;1999.90;999.90;;;19.20;99.90;;;;;;4992466;28;20460;-69
2023/09/26 09:33:48;;;;;;;1999.90;999.90;;;19.10;99.90;;;;;;4992732;28;20472;-68
2023/09/26 09:36:14;;;;;;;1999.90;999.90;;;19.40;99.90;;;;;;4974313;28;20440;-68
2023/09/26 09:38:40;;;;;;;1999.90;999.90;;;;;;;;;;4971714;28;20478;-68
2023/09/26 09:41:07;;;;;;;1999.90;999.90;;;19.80;99.90;;;;;;4971100;28;20412;-68
2023/09/26 09:43:33;;;;;;;1999.90;999.90;;;19.80;99.90;;;;;;4971968;28;20521;-68
2023/09/26 09:46:04;;;;;;;1999.90;999.90;;;19.50;99.90;;;;;;4971727;28;21093;-68
2023/09/26 09:48:33;;;;;;;1999.90;999.90;;;19.60;99.90;;;;;;4971233;28;20441;-67
2023/09/26 09:51:03;;;;;;;1999.90;999.90;;;20.10;99.90;;;;;;4971502;28;20415;-67
2023/09/26 09:53:32;;;;;;;1999.90;999.90;;;20.00;99.90;;;;;;4971818;28;20487;-67
2023/09/26 09:56:04;;;;;;;1999.90;999.90;;;20.10;99.90;;;;;;4971486;28;20414;-67
2023/09/26 09:58:32;;;;;;;1999.90;999.90;;;20.10;99.90;;;;;;4971598;28;20492;-68
2023/09/26 10:00:59;;;;;;;1999.90;999.90;;;20.20;99.90;;;;;;4971126;28;20946;-68
2023/09/26 10:03:26;;;;;;;1999.90;999.90;;;20.30;99.90;;;;;;4998756;28;20429;-68
2023/09/26 10:05:53;;;;;;;1999.90;999.90;;;20.50;99.90;;;;;;5006379;28;20531;-68
2023/09/26 10:08:20;;;;;;;1999.90;999.90;;;20.60;99.90;;;;;;5010345;28;20417;-68
2023/09/26 10:10:46;;;;;;;1999.90;999.90;;;20.70;99.90;;;;;;5010379;28;20486;-66
2023/09/26 10:13:13;;;;;;;1999.90;999.90;;;20.80;99.90;;;;;;5009795;28;20467;-68
2023/09/26 10:16:11;;;;;;;1999.90;999.90;;;20.90;99.90;;;;;;5009896;28;20182;-68
2023/09/26 10:18:40;;;;;;;1999.90;999.90;;;21.10;99.90;;;;;;5010716;28;20413;-67
2023/09/26 10:21:22;;;;;;;1999.90;999.90;;;21.30;99.90;;;;;;5010125;28;20407;-67
2023/09/26 10:24:12;;;;;;;1999.90;999.90;;;20.60;99.90;;;;;;5010353;28;20462;-66
2023/09/26 10:26:50;;;;;;;1999.90;999.90;;;21.70;99.90;;;;;;4995846;28;20463;-69
2023/09/26 10:29:24;;;;;;;1999.90;999.90;;;21.80;99.90;;;;;;4982314;28;20450;-70
2023/09/26 10:31:57;;;;;;;1999.90;999.90;;;22.00;99.90;;;;;;4993441;28;20457;-69
2023/09/26 10:34:24;;;;;;;1999.90;999.90;;;22.20;99.90;;;;;;4998575;28;20451;-69
2023/09/26 10:36:50;;;;;;;1999.90;999.90;;;22.30;99.90;;;;;;4996825;28;20420;-68
2023/09/26 10:39:15;;;;;;;1999.90;999.90;;;22.40;99.90;;;;;;4998930;28;20481;-68
2023/09/26 10:41:41;;;;;;;1999.90;999.90;;;22.60;99.90;;;;;;4996087;28;20180;-69
2023/09/26 10:44:06;;;;;;;1999.90;999.90;;;22.70;99.90;;;;;;5000381;28;20201;-68
2023/09/26 10:46:32;;;;;;;1999.90;999.90;;;22.80;98.60;;;;;;4989784;28;20638;-68
2023/09/26 10:48:58;;;;;;;1999.90;999.90;;;22.90;98.50;;;;;;4990498;28;20181;-69
2023/09/26 10:51:23;;;;;;;1999.90;999.90;;;23.00;96.20;;;;;;4989799;28;20181;-68
2023/09/26 10:53:49;;;;;;;1999.90;999.90;;;23.10;95.80;;;;;;4989223;28;20208;-68
2023/09/26 10:56:15;;;;;;;1999.90;999.90;;;23.10;95.20;;;;;;4990275;28;20260;-69
2023/09/26 10:58:41;;;;;;;1999.90;999.90;;;23.30;92.40;;;;;;4989731;28;20519;-69
2023/09/26 11:01:08;;;;;;;1999.90;999.90;;;23.40;93.30;;;;;;4989430;28;20249;-68
2023/09/26 11:03:34;;;;;;;1999.90;999.90;;;23.40;90.40;;;;;;4989966;28;20498;-69
2023/09/26 11:06:01;;;;;;;1999.90;999.90;;;23.50;92.60;;;;;;4989470;28;20470;-68
2023/09/26 11:08:27;;;;;;;1999.90;999.90;;;23.70;92.70;;;;;;4989352;28;20235;-68
2023/09/26 11:10:53;;;;;;;1999.90;999.90;;;23.90;91.30;;;;;;4989898;28;20445;-69
2023/09/26 11:13:22;;;;;;;1999.90;999.90;;;23.30;95.50;;;;;;4989409;28;21176;-68
2023/09/26 11:15:54;;;;;;;1999.90;999.90;;;24.10;89.50;;;;;;4989081;28;20181;-67
2023/09/26 11:18:20;;;;;;;1999.90;999.90;;;24.20;80.90;;;;;;4989201;28;20392;-67
2023/09/26 11:20:45;;;;;;;1999.90;999.90;;;24.30;76.60;;;;;;4989402;28;20392;-68
2023/09/26 11:23:11;;;;;;;1999.90;999.90;;;24.50;89.70;;;;;;4989074;28;20200;-68
2023/09/26 11:25:41;;;;;;;1999.90;999.90;;;24.50;76.50;;;;;;4988961;28;20424;-69
2023/09/26 11:28:07;;;;;;;1999.90;999.90;;;24.70;74.20;;;;;;4989380;28;20405;-68
2023/09/26 11:30:32;;;;;;;1999.90;999.90;;;24.90;71.00;;;;;;4989441;28;20478;-67
2023/09/26 11:32:59;;;;;;;1999.90;999.90;;;25.40;77.30;;;;;;4988809;28;20185;-68
2023/09/26 11:35:25;;;;;;;1999.90;999.90;;;26.00;66.30;;;;;;4988957;28;20276;-68
2023/09/26 11:37:55;;;;;;;1999.90;999.90;;;26.80;58.70;;;;;;4989390;28;20409;-67
2023/09/26 11:40:25;;;;;;;1999.90;999.90;;;27.70;51.40;;;;;;4988842;28;20444;-67
2023/09/26 11:42:55;;;;;;;1999.90;999.90;;;28.70;41.70;;;;;;4988725;28;20421;-67
2023/09/26 11:45:24;;;;;;;1999.90;999.90;;;29.20;24.60;;;;;;4988600;28;20514;-70
2023/09/26 11:47:54;;;;;;;1999.90;999.90;;;29.90;24.50;;;;;;4989629;28;20950;-67
2023/09/26 11:50:21;;;;;;;1999.90;999.90;;;30.60;18.80;;;;;;4989198;28;20409;-69
2023/09/26 11:52:48;;;;;;;1999.90;999.90;;;31.20;14.10;;;;;;4988462;28;20439;-68
2023/09/26 11:55:20;;;;;;;1999.90;999.90;;;31.60;11.30;;;;;;4988470;28;20461;-69
2023/09/26 11:57:49;;;;;;;1999.90;999.90;;;32.20;7.00;;;;;;4989141;28;20424;-68